Dover Air Force Base
KDOV : now visible

Airfield :











YOU CAN JOIN US ON...

 
LOGIN :

Register | Disclaimer

   EN    FR    IT 

 









Legend :    VFR   Marginal VFR   IFR   Intensive IFR   Very Intensive IFR
Visi :
Ceiling :
>= 8 km
>= 3000ft
5 to 8 km
1000 to 3000 ft
1500m to 5 km
500 to 1000 ft
800 to 1500m
200 to 500 ft
< 800m
< 200 ft
Symbols :   Thunderstorms  Fog  Heavy snow  Heavy precipitations  Wind > 20 kt






- Airport Elevation : 24 ft


KDOV - Dover Air Force Base

CURRENT METAR :
  • 170356Z AUTO 00000KT 10SM OVC100 05/00 A3011 RMK AO2 SLP200 T00491001 $

EXPIRED METARs :
  • 170256Z AUTO 00000KT 10SM OVC110 05/00 A3011 RMK AO2 SLP200 T00501002 55001 $
  • 170156Z AUTO 00000KT 10SM OVC120 05/00 A3009 RMK AO2 SLP193 T00510001 $
  • 170056Z AUTO 20006KT 10SM OVC110 05/00 A3011 RMK AO2 SLP200 T00531003 $

TAF TAF KDOV
Valid from the 17 at 00:00 until the 18 at 06:00 UTC


170000Z 1700/1806 22006KT 9999 BKN100 QNH3011INS
BECMG 1705/1706 27006KT 9999 BKN050 BKN100 620503 QNH3012INS
BECMG 1708/1709 33006KT 9000 BR BKN040 BKN080 620402 620803 QNH3014INS
BECMG 1711/1712 36006KT 9999 NSW FEW200 QNH3022INS
BECMG 1723/1724 09006KT 9999 SCT150 QNH3032INS TX11/1719Z TN00/1711Z



MET'MAP, your aeronautical weather chart ! - Copyright ORBIFLY December 2007 - Disclaimer

ORBIFLY MET'MAP TEAM :

Programming & Development : Alexandra Zaïnal
Concept & original design : Baudouin d'Aumeries
Assistance for programming : Marc-Olivier Méhu
Technical & hardware support : Manuel Goepfert

Contact : metmap@orbifly.com




SOURCES & CREDITS :

   NOAA       Earth
Advisory